createdAt,value
2022-10-19T03:43:44.838Z,6.55
2022-10-19T03:46:47.914Z,6.60
2022-10-19T03:49:50.705Z,6.10
2022-10-19T03:52:55.221Z,6.25
2022-10-19T03:56:08.719Z,5.55
2022-10-19T03:59:14.642Z,4.97
2022-10-19T04:02:17.088Z,5.62
2022-10-19T04:05:19.871Z,6.05
2022-10-19T04:08:22.325Z,5.63
2022-10-19T04:11:27.775Z,5.78
2022-10-19T04:14:33.190Z,5.57
2022-10-19T04:17:43.810Z,5.68
2022-10-19T04:20:48.525Z,5.97
2022-10-19T04:23:53.544Z,5.22
2022-10-19T04:26:56.704Z,5.70
2022-10-19T04:29:59.512Z,5.43
2022-10-19T04:33:03.030Z,5.72
2022-10-19T04:36:08.382Z,5.68
2022-10-19T04:39:10.875Z,6.03
2022-10-19T04:42:13.613Z,7.15
2022-10-19T04:45:16.143Z,6.43
2022-10-19T04:48:18.882Z,5.85
2022-10-19T04:51:22.704Z,6.30
2022-10-19T04:54:25.510Z,6.20
2022-10-19T04:57:29.039Z,5.45
2022-10-19T05:00:33.089Z,6.20
2022-10-19T05:03:35.953Z,6.87
2022-10-19T05:09:41.096Z,5.03
2022-10-19T05:12:43.870Z,6.00
2022-10-19T05:15:56.428Z,5.32
2022-10-19T05:18:59.745Z,6.00
2022-10-19T05:22:02.276Z,7.05
2022-10-19T05:25:06.423Z,6.03
2022-10-19T05:28:09.006Z,6.05
2022-10-19T05:31:18.499Z,5.65
2022-10-19T05:34:21.180Z,6.05
2022-10-19T05:37:25.697Z,6.28
2022-10-19T05:40:28.558Z,6.22
2022-10-19T05:43:31.324Z,5.78
2022-10-19T05:46:34.755Z,6.35
2022-10-19T05:49:39.992Z,6.03
2022-10-19T05:52:42.790Z,5.37
2022-10-19T05:55:45.696Z,5.72
2022-10-19T05:58:49.438Z,6.40
2022-10-19T06:01:52.227Z,6.05
2022-10-19T06:04:54.978Z,5.78
2022-10-19T06:07:57.475Z,5.62
2022-10-19T06:11:12.294Z,5.40
2022-10-19T06:14:16.171Z,5.72
2022-10-19T06:17:18.997Z,5.32
2022-10-19T06:20:22.378Z,5.50
2022-10-19T06:23:25.258Z,5.00
2022-10-19T06:26:28.847Z,5.68
2022-10-19T06:29:32.296Z,5.82
2022-10-19T06:32:34.811Z,5.28
2022-10-19T06:35:38.394Z,5.40
2022-10-19T06:38:41.989Z,5.47
2022-10-19T06:41:44.843Z,4.40
2022-10-19T06:44:49.212Z,5.45
2022-10-19T06:47:52.203Z,4.80
2022-10-19T06:50:59.345Z,4.53
2022-10-19T06:54:02.246Z,4.68
2022-10-19T06:57:04.732Z,4.35
2022-10-19T07:00:09.093Z,5.03
2022-10-19T07:03:11.810Z,5.28
2022-10-19T07:06:14.739Z,5.00
2022-10-19T07:09:19.764Z,5.55
2022-10-19T07:12:22.954Z,4.28
2022-10-19T07:15:25.772Z,4.82
2022-10-19T07:18:28.831Z,4.30
2022-10-19T07:21:31.495Z,4.62
2022-10-19T07:24:34.323Z,4.87
2022-10-19T07:27:38.975Z,4.93
2022-10-19T07:30:42.237Z,5.50
2022-10-19T07:33:44.984Z,4.78
2022-10-19T07:36:48.186Z,3.95
2022-10-19T07:42:53.696Z,4.43
2022-10-19T07:46:07.671Z,4.85
2022-10-19T07:49:14.138Z,4.87
2022-10-19T07:52:16.985Z,5.05
2022-10-19T07:58:22.593Z,4.30
2022-10-19T08:01:29.029Z,4.62
2022-10-19T08:04:55.968Z,4.55
2022-10-19T08:07:54.692Z,4.15
2022-10-19T08:11:12.375Z,4.05
2022-10-19T08:14:14.886Z,4.60
2022-10-19T08:17:17.898Z,4.15
2022-10-19T08:23:23.827Z,3.97
2022-10-19T08:26:29.928Z,4.22
2022-10-19T08:29:32.780Z,4.07
2022-10-19T08:32:35.603Z,4.75
2022-10-19T08:35:38.908Z,3.85
2022-10-19T08:38:45.141Z,3.83
2022-10-19T08:41:53.875Z,3.75
2022-10-19T08:45:15.523Z,3.80
2022-10-19T08:48:33.797Z,3.45
2022-10-19T08:51:39.977Z,3.10
2022-10-19T08:54:57.268Z,3.20
2022-10-19T08:58:22.942Z,2.40
2022-10-19T09:01:41.030Z,2.33
2022-10-19T09:04:53.912Z,2.60
2022-10-19T09:07:57.338Z,2.03
2022-10-19T09:11:01.182Z,2.92
2022-10-19T09:14:25.793Z,2.53
2022-10-19T09:17:28.914Z,2.03
2022-10-19T09:20:41.310Z,2.30
2022-10-19T09:23:55.230Z,2.00
2022-10-19T09:27:00.980Z,1.55
2022-10-19T09:30:20.137Z,1.70
2022-10-19T09:33:35.550Z,1.92
2022-10-19T09:36:51.557Z,1.52
2022-10-19T09:39:56.160Z,1.87
2022-10-19T09:43:02.945Z,1.67
2022-10-19T09:46:20.643Z,1.75
2022-10-19T09:49:41.772Z,1.80
2022-10-19T09:52:46.916Z,1.98
2022-10-19T09:56:09.412Z,2.15
2022-10-19T09:59:22.968Z,1.67
2022-10-19T10:02:32.536Z,1.50
2022-10-19T10:05:38.485Z,1.75
2022-10-19T10:08:48.522Z,1.60
2022-10-19T10:11:51.980Z,1.40
2022-10-19T10:14:56.433Z,1.73
2022-10-19T10:17:59.505Z,1.25
2022-10-19T10:21:25.118Z,1.15
2022-10-19T10:24:31.640Z,1.23
2022-10-19T10:27:38.286Z,1.37
2022-10-19T10:30:41.967Z,1.73
2022-10-19T10:34:12.126Z,0.80
2022-10-19T10:37:44.147Z,1.33
2022-10-19T10:41:01.343Z,0.82
2022-10-19T10:44:08.959Z,0.80
2022-10-19T10:47:16.673Z,0.50
2022-10-19T10:50:23.188Z,0.70
2022-10-19T10:53:43.238Z,0.80
2022-10-19T10:57:06.210Z,0.82
2022-10-19T11:03:30.735Z,0.90
2022-10-19T11:06:43.735Z,0.80
2022-10-19T11:09:58.664Z,1.00
2022-10-19T11:13:07.047Z,0.88
2022-10-19T11:16:16.595Z,0.70
2022-10-19T11:19:27.459Z,0.45
2022-10-19T11:22:41.485Z,0.60
2022-10-19T11:26:07.841Z,0.80
2022-10-19T11:29:20.028Z,0.70
2022-10-19T11:33:04.509Z,0.50
2022-10-19T11:36:25.841Z,0.80
2022-10-19T11:39:37.314Z,0.50
2022-10-19T11:43:19.659Z,0.98
2022-10-19T11:46:29.784Z,0.93
2022-10-19T11:49:51.740Z,0.70
2022-10-19T11:53:19.342Z,0.77
2022-10-19T11:57:09.380Z,0.95
2022-10-19T12:00:38.169Z,0.80
2022-10-19T12:04:03.510Z,0.70
2022-10-19T12:07:30.058Z,0.55
2022-10-19T12:10:55.722Z,0.70
2022-10-19T12:14:06.042Z,0.50
2022-10-19T12:17:24.280Z,0.95
2022-10-19T12:20:32.081Z,0.60
2022-10-19T12:23:38.992Z,0.55
2022-10-19T12:26:43.038Z,0.50
2022-10-19T12:29:49.640Z,0.75
2022-10-19T12:33:01.072Z,0.98
2022-10-19T12:36:42.091Z,0.70
2022-10-19T12:40:00.428Z,0.77
2022-10-19T12:43:21.895Z,0.60
2022-10-19T12:46:49.836Z,0.68
2022-10-19T12:49:56.820Z,0.82
2022-10-19T12:52:59.384Z,0.75
2022-10-19T12:56:10.097Z,0.70
2022-10-19T12:59:32.233Z,0.82
2022-10-19T13:02:39.064Z,0.80
2022-10-19T13:05:42.255Z,0.68
2022-10-19T13:08:48.442Z,0.60
2022-10-19T13:12:14.781Z,0.70
2022-10-19T13:15:36.065Z,0.60
2022-10-19T13:19:14.078Z,0.55
2022-10-19T13:22:26.775Z,0.75
2022-10-19T13:25:36.727Z,0.70
2022-10-19T13:28:51.950Z,0.90
2022-10-19T13:31:54.593Z,0.62
2022-10-19T13:35:22.484Z,0.68
2022-10-19T13:38:57.359Z,0.85
2022-10-19T13:42:00.294Z,0.70
2022-10-19T13:45:03.094Z,0.65
2022-10-19T13:48:22.596Z,1.02
2022-10-19T13:51:34.342Z,0.80
2022-10-19T13:54:41.836Z,1.00
2022-10-19T13:58:22.212Z,0.73
2022-10-19T14:01:37.241Z,1.00
2022-10-19T14:04:54.993Z,0.82
2022-10-19T14:08:29.413Z,0.90
2022-10-19T14:11:40.432Z,1.20
2022-10-19T14:14:44.698Z,1.00
2022-10-19T14:17:47.708Z,1.55
2022-10-19T14:21:00.892Z,1.20
2022-10-19T14:24:20.195Z,1.10
2022-10-19T14:27:24.771Z,1.12
2022-10-19T14:30:32.259Z,1.30
2022-10-19T14:33:39.684Z,1.10
2022-10-19T14:36:48.328Z,1.40
2022-10-19T14:40:00.445Z,1.27
2022-10-19T14:46:08.703Z,1.27
2022-10-19T14:49:11.903Z,1.42
2022-10-19T14:52:32.037Z,1.20
2022-10-19T14:55:39.639Z,1.62
2022-10-19T14:58:55.862Z,1.20
2022-10-19T15:02:01.279Z,1.30
2022-10-19T15:05:05.899Z,0.90
2022-10-19T15:08:16.849Z,1.05
2022-10-19T15:11:49.787Z,1.30
2022-10-19T15:14:53.019Z,1.65
2022-10-19T15:21:12.286Z,1.45
2022-10-19T15:24:27.207Z,1.08
